New York, NY

7:56 PM EDT on March 28, 2017 (GMT -0400)
Chelsea, West 28th St. | | Change Station

Elev 110 ft 40.75 °N, 73.99 °W | Updated 6 seconds ago

Rain
Rain Mist
42.6 °F
Feels Like 43 °F
N
0.0
Wind Variable Wind from WSW
Gusts 0.0 mph

Today
High -- | Low -- °F
--% Chance of Precip.
Yesterday
High -- | Low -- °F
Precip. -- in
Pressure 29.91 in
Visibility 4.0 miles
Clouds Overcast 700 ft
Windchill 43 °F
Dew Point 40 °F
Humidity 92%
Rainfall 0.60 in
Snow Depth Not available.
6:45 AM 7:16 PM
New Moon, 1% visible
METAR KNYC 282351Z AUTO 05008KT 020V080 4SM RA BR OVC007 05/04 A2993 RMK AO2 SLP128 P0022 60035 T00500044 10067 20050 51009
Pressure 29.91 in
Visibility 4.0 miles
Clouds Overcast 700 ft
Windchill 43 °F
Dew Point 40 °F
Humidity 92%
Rainfall 0.60 in
Snow Depth Not available.
6:45 AM 7:16 PM
New Moon, 1% visible
METAR KNYC 282351Z AUTO 05008KT 020V080 4SM RA BR OVC007 05/04 A2993 RMK AO2 SLP128 P0022 60035 T00500044 10067 20050 51009

Get Severe Weather Alerts

Thanks for signing up!

Be on the lookout for a verification email in your inbox.

You'll start receiving the daily forecast at 8 AM.

×

10-Day Weather Forecast

Almanac

Astronomy

Mar. 28, 2017 Rise Set
Actual Time
Civil Twilight
Nautical Twilight
Astronomical Twilight
Moon
Length of Visible Light
Length of Day
Tomorrow will be .
, % of the Moon is Illuminated

Today's Extremes

State Highs State Lows

Community

WunderPhotos

Upload Photos

1,962,540 photos uploaded!

WunderBlog® & News

Nearby

Air Quality

  Air Quality AQ Index Pollutant
Not available.

Snow Depth

Station Depth Elevation

Earthquake Activity

City Distance Mag. Time & Date
Minimum magnitude displayed is 2.5.

Earthquake Activity

City Distance Mag. Time & Date
Minimum magnitude displayed is 2.5.

Coastal Water Temperatures

Place Temperature

Stations

Nearby Weather Stations

Station Location Temp. Windchill Dew Point Humidity Wind Precip. Elev Updated Type
                   

Watches & Warnings

There are currently no watches in effect.